KAOO/AOO METAR and TAF weather

Enter ICAO airport designator
Station Type Date Time Source
KAOO METAR 2020/01/28 04:53 UTC NOAA

KAOO 280453Z AUTO 31009G17KT 10SM OVC017 01/M04 A2983 RMK AO2 SLP115 T00061039 400220006


Station Type Date Time Source
KAOO Decoded METAR 2020/01/28 04:53 UTC NOAA

ALTOONA-BLAIR COUNTY AIRPORT, PA, United States (KAOO) 40-18N 78-19W 455M
Jan 27, 2020 - 11:53 PM EST / 2020.01.28 0453 UTC
Wind: from the NW (310 degrees) at 10 MPH (9 KT) gusting to 20 MPH (17 KT):0
Visibility: 10 mile(s):0
Sky conditions: overcast
Temperature: 33.1 F (0.6 C)
Windchill: 24 F (-4 C):1
Dew Point: 25.0 F (-3.9 C)
Relative Humidity: 71%
Pressure (altimeter): 29.83 in. Hg (1010 hPa)
ob: KAOO 280453Z AUTO 31009G17KT 10SM OVC017 01/M04 A2983 RMK AO2 SLP115 T00061039 400220006
cycle: 5

Station Type Date Time Source
KAOO TAF 2020/01/28 04:09 UTC NOAA

TAF
AMD KAOO 280406Z 2804/2824 31010KT P6SM VCSH OVC020
FM281400 30012G20KT P6SM OVC040

Example: see airport list